Time;durP1;ratioP1;P1;durP2;ratioP2;P2;SDS_P1;SDS_P2;PMS_P1;PMS_P2;Temp;Humidity;BMP_temperature;BMP_pressure;BME280_temperature;BME280_humidity;BME280_pressure;Samples;Min_cycle;Max_cycle;Signal;HPM_P1;HPM_P2
2023/10/06 00:00:42;;;;;;;8.30;4.63;;;;;;;13.61;77.31;99768.28;5005163;28;20040;-82
2023/10/06 00:03:13;;;;;;;10.15;4.30;;;;;;;13.47;77.65;99759.78;5026419;28;20047;-83
2023/10/06 00:05:48;;;;;;;12.80;4.45;;;;;;;13.34;77.79;99746.72;5032007;28;20057;-82
2023/10/06 00:08:17;;;;;;;11.13;4.78;;;;;;;13.54;77.23;99756.94;5030933;28;20064;-83
2023/10/06 00:10:54;;;;;;;15.43;4.82;;;;;;;13.62;77.25;99761.06;5027272;28;20392;-83
2023/10/06 00:13:28;;;;;;;13.05;4.53;;;;;;;13.55;77.85;99761.22;5013036;28;21192;-83
2023/10/06 00:15:55;;;;;;;10.30;3.95;;;;;;;13.31;77.50;99741.00;5029915;28;20028;-83
2023/10/06 00:18:24;;;;;;;13.82;4.47;;;;;;;13.21;78.04;99746.22;5031147;28;22215;-83
2023/10/06 00:20:56;;;;;;;9.40;3.95;;;;;;;13.24;77.87;99745.72;5024010;28;20037;-83
2023/10/06 00:23:23;;;;;;;10.35;3.85;;;;;;;13.33;78.05;99747.75;5013640;28;20029;-83
2023/10/06 00:25:56;;;;;;;9.57;3.85;;;;;;;13.19;78.25;99751.81;5029747;28;20029;-83
2023/10/06 00:28:25;;;;;;;8.07;3.58;;;;;;;13.24;78.20;99757.25;5017618;28;20029;-84
2023/10/06 00:30:57;;;;;;;6.30;4.00;;;;;;;13.32;77.61;99754.16;5028295;28;20040;-83
2023/10/06 00:33:32;;;;;;;10.15;3.88;;;;;;;13.45;77.64;99761.88;5028734;28;20033;-83
2023/10/06 00:36:11;;;;;;;11.55;3.88;;;;;;;13.39;77.57;99748.63;5001446;28;20033;-83
2023/10/06 00:38:37;;;;;;;13.60;5.00;;;;;;;13.34;77.29;99735.97;5024770;28;20389;-83
2023/10/06 00:41:06;;;;;;;11.10;5.00;;;;;;;13.38;77.22;99752.38;5009231;28;20029;-84
2023/10/06 00:43:39;;;;;;;8.57;3.88;;;;;;;13.51;77.09;99763.59;5029270;28;20392;-83
2023/10/06 00:46:08;;;;;;;8.68;4.07;;;;;;;13.59;76.81;99758.84;5005471;28;20120;-83
2023/10/06 00:48:38;;;;;;;16.33;5.07;;;;;;;13.48;76.73;99756.03;5026414;28;20108;-83
2023/10/06 00:51:22;;;;;;;13.90;4.30;;;;;;;13.57;76.63;99752.94;4992104;28;20033;-83
2023/10/06 00:53:56;;;;;;;9.88;4.07;;;;;;;13.52;76.69;99734.88;5018132;28;20057;-83
2023/10/06 00:56:25;;;;;;;12.75;4.20;;;;;;;13.56;76.59;99745.97;5010508;28;20057;-83
2023/10/06 00:58:54;;;;;;;14.93;6.47;;;;;;;13.54;76.44;99748.91;5025283;28;20030;-83
2023/10/06 01:01:21;;;;;;;10.25;4.57;;;;;;;13.37;76.67;99722.06;5027127;28;20044;-83
2023/10/06 01:03:54;;;;;;;7.40;4.20;;;;;;;13.39;76.88;99722.63;5009629;28;20497;-83
2023/10/06 01:06:23;;;;;;;9.02;4.80;;;;;;;13.41;76.50;99715.16;5023252;28;20041;-82
2023/10/06 01:09:05;;;;;;;8.95;3.95;;;;;;;13.50;76.54;99726.28;5029239;28;20029;-83
2023/10/06 01:11:40;;;;;;;9.80;4.45;;;;;;;13.45;76.84;99742.31;5026721;28;20045;-83
2023/10/06 01:14:06;;;;;;;11.97;4.73;;;;;;;13.30;76.43;99726.78;5015556;28;20026;-83
2023/10/06 01:16:38;;;;;;;10.18;4.15;;;;;;;13.39;76.78;99737.91;5025443;28;20289;-83
2023/10/06 01:19:14;;;;;;;12.07;4.82;;;;;;;13.21;76.99;99724.78;5030422;28;20025;-83
2023/10/06 01:21:47;;;;;;;9.50;4.50;;;;;;;13.27;76.92;99713.06;5008035;28;20044;-83
2023/10/06 01:24:15;;;;;;;11.88;4.63;;;;;;;13.35;76.72;99736.78;5021842;28;20029;-83
2023/10/06 01:26:41;;;;;;;11.90;4.32;;;;;;;13.33;76.94;99738.88;5019265;28;20025;-83
2023/10/06 01:29:10;;;;;;;10.15;3.80;;;;;;;13.22;76.88;99713.78;5027001;28;20132;-82
2023/10/06 01:31:40;;;;;;;8.07;3.67;;;;;;;13.36;76.88;99730.38;5005762;28;20040;-83
2023/10/06 01:34:11;;;;;;;8.20;3.92;;;;;;;13.41;76.56;99741.19;5024825;28;20021;-83
2023/10/06 01:36:39;;;;;;;12.32;4.35;;;;;;;13.28;77.04;99738.84;5022571;28;20060;-83
2023/10/06 01:39:18;;;;;;;12.75;4.63;;;;;;;13.33;77.00;99739.72;5030146;28;20079;-83
2023/10/06 01:41:47;;;;;;;10.13;4.78;;;;;;;13.30;76.91;99744.75;5025517;28;20511;-83
2023/10/06 01:44:15;;;;;;;9.60;4.40;;;;;;;13.18;77.26;99744.00;5021731;28;20452;-83
2023/10/06 01:46:41;;;;;;;9.93;4.35;;;;;;;13.21;76.38;99728.28;5023584;28;20439;-83
2023/10/06 01:49:14;;;;;;;11.63;4.10;;;;;;;12.88;77.52;99727.38;5027995;28;20112;-83
2023/10/06 01:51:40;;;;;;;7.57;4.38;;;;;;;12.74;77.57;99721.50;5018485;28;20029;-83
2023/10/06 01:54:12;;;;;;;11.63;5.47;;;;;;;12.61;78.30;99729.84;5028608;28;20029;-83
2023/10/06 01:56:42;;;;;;;7.28;4.70;;;;;;;12.63;78.42;99757.19;5027784;28;20512;-83
2023/10/06 01:59:12;;;;;;;8.98;4.90;;;;;;;12.55;79.18;99754.91;4993169;28;20508;-83
2023/10/06 02:01:41;;;;;;;12.43;3.92;;;;;;;12.71;79.38;99746.13;5037337;28;20037;-83
2023/10/06 02:04:10;;;;;;;13.55;4.78;;;;;;;12.58;78.75;99746.41;5027194;28;20060;-83
2023/10/06 02:06:35;;;;;;;10.75;4.35;;;;;;;12.41;79.46;99734.81;5028176;28;20067;-84
2023/10/06 02:09:05;;;;;;;12.95;5.07;;;;;;;12.67;78.85;99732.38;5011220;28;20090;-83
2023/10/06 02:11:34;;;;;;;8.75;4.78;;;;;;;12.23;79.53;99705.56;5025859;28;20060;-83
2023/10/06 02:13:59;;;;;;;11.85;4.88;;;;;;;12.44;79.40;99729.00;4987077;28;20026;-83
2023/10/06 02:16:26;;;;;;;9.38;4.70;;;;;;;12.31;80.00;99756.03;5024417;28;20032;-83
2023/10/06 02:18:54;;;;;;;11.23;4.95;;;;;;;12.36;80.01;99753.47;5023180;28;20440;-83
2023/10/06 02:21:24;;;;;;;9.95;5.13;;;;;;;12.34;79.86;99747.53;5026091;28;20049;-82
2023/10/06 02:23:51;;;;;;;10.77;5.15;;;;;;;12.16;80.00;99743.16;5024987;28;20041;-83
2023/10/06 02:26:17;;;;;;;7.22;4.97;;;;;;;12.32;79.95;99733.59;5026571;28;20042;-82
2023/10/06 02:28:48;;;;;;;12.80;5.13;;;;;;;12.21;79.98;99723.72;5021388;28;20083;-82
2023/10/06 02:31:14;;;;;;;11.30;4.93;;;;;;;12.36;79.95;99740.09;5021856;28;20115;-82
2023/10/06 02:33:40;;;;;;;8.57;4.82;;;;;;;12.37;79.96;99739.84;5020033;28;20092;-83
2023/10/06 02:36:23;;;;;;;12.75;5.47;;;;;;;12.35;79.93;99719.72;5026081;28;20029;-83
2023/10/06 02:38:52;;;;;;;10.70;4.13;;;;;;;12.55;79.27;99722.78;5023005;28;20032;-83
2023/10/06 02:41:25;;;;;;;14.32;5.55;;;;;;;12.48;79.33;99732.81;5019547;28;20041;-83
2023/10/06 02:43:55;;;;;;;7.65;3.95;;;;;;;12.50;79.66;99720.00;5027122;28;20038;-83
2023/10/06 02:46:21;;;;;;;8.23;4.47;;;;;;;12.29;79.65;99718.00;5020507;28;20052;-83
2023/10/06 02:48:50;;;;;;;9.85;4.82;;;;;;;12.44;80.05;99729.81;5026998;28;20030;-83
2023/10/06 02:51:29;;;;;;;7.07;4.82;;;;;;;12.69;79.22;99727.59;5027584;28;20021;-83
2023/10/06 02:54:21;;;;;;;10.48;4.70;;;;;;;12.53;79.26;99712.31;5022338;28;20052;-82
2023/10/06 02:56:47;;;;;;;10.25;4.00;;;;;;;12.66;79.03;99712.00;5020127;28;20049;-83
2023/10/06 02:59:22;;;;;;;10.00;4.60;;;;;;;12.67;78.45;99691.38;5021989;28;20091;-83
2023/10/06 03:01:56;;;;;;;8.52;4.80;;;;;;;12.57;79.38;99702.75;5025461;28;20473;-83
2023/10/06 03:04:25;;;;;;;9.75;4.72;;;;;;;12.50;79.55;99703.94;5026062;28;20132;-83
2023/10/06 03:06:57;;;;;;;11.85;4.63;;;;;;;12.53;79.61;99704.28;5024900;28;20049;-82
2023/10/06 03:09:37;;;;;;;8.85;4.22;;;;;;;12.42;79.46;99683.72;5029595;28;20033;-83
2023/10/06 03:12:11;;;;;;;9.02;4.78;;;;;;;12.48;80.44;99706.84;5047028;28;20362;-83
2023/10/06 03:14:37;;;;;;;9.80;4.85;;;;;;;12.45;79.70;99699.28;5028798;28;20500;-83
2023/10/06 03:17:10;;;;;;;11.25;5.00;;;;;;;12.48;80.36;99696.16;5024106;28;20056;-83
2023/10/06 03:19:40;;;;;;;12.93;4.40;;;;;;;12.46;80.27;99695.56;5027457;28;20505;-82
2023/10/06 03:22:07;;;;;;;9.35;4.70;;;;;;;12.39;80.33;99680.69;5028042;28;20025;-83
2023/10/06 03:24:34;;;;;;;10.35;4.30;;;;;;;12.43;80.03;99701.41;5026950;28;20474;-82
2023/10/06 03:27:04;;;;;;;11.20;4.93;;;;;;;12.49;79.88;99697.75;5028645;28;20033;-82
2023/10/06 03:29:46;;;;;;;11.25;4.90;;;;;;;12.45;80.47;99717.25;5024584;28;20447;-82
2023/10/06 03:32:13;;;;;;;11.75;4.63;;;;;;;12.33;80.67;99700.41;5020729;28;20443;-82
2023/10/06 03:34:39;;;;;;;13.75;4.93;;;;;;;12.27;80.78;99699.50;5021354;28;20072;-82
2023/10/06 03:37:05;;;;;;;8.82;4.32;;;;;;;12.48;80.29;99704.19;5028729;28;20416;-82
2023/10/06 03:39:31;;;;;;;9.25;3.92;;;;;;;12.35;80.08;99682.22;5027695;28;20083;-82
2023/10/06 03:42:00;;;;;;;10.77;4.22;;;;;;;12.28;80.27;99692.25;5027269;28;20038;-82
2023/10/06 03:44:29;;;;;;;14.15;5.30;;;;;;;12.34;80.70;99702.81;5005392;28;20036;-82
2023/10/06 03:47:00;;;;;;;12.93;4.60;;;;;;;12.34;80.63;99702.03;5018712;28;20021;-82
2023/10/06 03:49:26;;;;;;;7.43;3.97;;;;;;;12.31;80.81;99714.03;5014620;28;20037;-82
2023/10/06 03:51:55;;;;;;;9.82;3.92;;;;;;;12.28;80.39;99682.38;5024208;28;20033;-82
2023/10/06 03:54:21;;;;;;;14.32;4.97;;;;;;;12.35;80.74;99703.66;5024508;28;20036;-82
2023/10/06 03:56:49;;;;;;;9.93;5.15;;;;;;;12.35;80.75;99714.34;5028804;28;20413;-82
2023/10/06 03:59:15;;;;;;;12.05;4.28;;;;;;;12.30;80.97;99701.69;5027413;28;20029;-82
2023/10/06 04:01:44;;;;;;;9.65;4.63;;;;;;;12.28;80.90;99700.28;5024600;28;20141;-82
2023/10/06 04:04:09;;;;;;;9.98;4.55;;;;;;;12.34;80.72;99716.22;5024917;28;20120;-83
2023/10/06 04:06:36;;;;;;;11.50;5.22;;;;;;;12.23;81.11;99713.59;5006284;28;20156;-82
2023/10/06 04:09:02;;;;;;;12.52;4.93;;;;;;;12.34;80.80;99705.50;4996353;28;20121;-82
2023/10/06 04:11:31;;;;;;;6.68;4.63;;;;;;;12.37;80.58;99701.53;5019441;28;20029;-82
2023/10/06 04:13:57;;;;;;;12.30;5.10;;;;;;;12.46;79.90;99710.81;5001213;28;20022;-82
2023/10/06 04:16:23;;;;;;;11.48;4.47;;;;;;;12.24;80.78;99707.16;5006503;28;20126;-83
2023/10/06 04:18:49;;;;;;;6.97;3.58;;;;;;;12.38;80.64;99713.88;5030326;28;20628;-82
2023/10/06 04:21:15;;;;;;;10.88;5.03;;;;;;;12.32;80.66;99704.94;5030179;28;20049;-82
2023/10/06 04:23:43;;;;;;;10.65;4.20;;;;;;;12.40;80.48;99719.81;5031932;28;20025;-81
2023/10/06 04:26:10;;;;;;;15.90;5.20;;;;;;;12.21;81.28;99719.16;5021535;28;20520;-82
2023/10/06 04:28:36;;;;;;;12.00;4.93;;;;;;;12.33;80.46;99714.59;5023015;28;20113;-81
2023/10/06 04:31:02;;;;;;;8.32;5.32;;;;;;;12.23;81.06;99735.78;5029241;28;20029;-81
2023/10/06 04:33:30;;;;;;;10.05;4.90;;;;;;;12.14;80.37;99715.00;5020967;28;20680;-81
2023/10/06 04:35:55;;;;;;;11.07;3.78;;;;;;;12.09;80.89;99704.19;5005541;28;20030;-82
2023/10/06 04:38:23;;;;;;;10.63;4.78;;;;;;;12.15;80.93;99713.94;5024211;28;20049;-81
2023/10/06 04:40:48;;;;;;;9.77;4.60;;;;;;;12.15;81.14;99708.59;5007424;28;20033;-81
2023/10/06 04:43:15;;;;;;;8.40;5.28;;;;;;;12.30;80.30;99707.03;5026961;28;20033;-81
2023/10/06 04:45:40;;;;;;;20.17;4.53;;;;;;;12.28;80.67;99694.94;5001993;28;20031;-81
2023/10/06 04:48:09;;;;;;;11.77;5.03;;;;;;;12.04;80.92;99691.53;5022305;28;20038;-82
2023/10/06 04:50:35;;;;;;;9.55;4.78;;;;;;;12.15;81.43;99711.28;5026356;28;20037;-81
2023/10/06 04:53:01;;;;;;;12.02;4.32;;;;;;;12.06;81.29;99708.16;5027099;28;20522;-81
2023/10/06 04:55:28;;;;;;;9.50;4.63;;;;;;;12.09;81.37;99706.88;5027760;28;20581;-81
2023/10/06 04:57:55;;;;;;;9.07;4.35;;;;;;;12.18;80.80;99708.94;5022857;28;20104;-81
2023/10/06 05:00:21;;;;;;;11.88;4.15;;;;;;;11.98;81.79;99714.69;5028597;28;20064;-81
2023/10/06 05:02:47;;;;;;;15.60;4.47;;;;;;;12.00;81.25;99709.09;5008529;28;20374;-82
2023/10/06 05:05:20;;;;;;;11.88;5.03;;;;;;;12.12;81.21;99725.97;5032278;28;20049;-82
2023/10/06 05:07:50;;;;;;;13.27;5.07;;;;;;;12.16;81.26;99721.75;5031902;28;20401;-82
2023/10/06 05:10:25;;;;;;;8.40;4.43;;;;;;;11.93;81.40;99711.91;5027509;28;20030;-82
2023/10/06 05:12:54;;;;;;;13.40;4.77;;;;;;;12.03;81.09;99708.66;5025549;28;20025;-82
2023/10/06 05:15:23;;;;;;;12.60;4.22;;;;;;;11.92;81.32;99702.28;5030852;28;20547;-83
2023/10/06 05:18:03;;;;;;;10.10;4.32;;;;;;;12.07;81.29;99700.94;5032041;28;20040;-82
2023/10/06 05:20:30;;;;;;;12.20;4.47;;;;;;;11.95;81.07;99684.91;5031019;28;20070;-82
2023/10/06 05:23:07;;;;;;;8.18;4.22;;;;;;;11.92;80.84;99696.09;5030466;28;20040;-82
2023/10/06 05:25:33;;;;;;;9.82;4.30;;;;;;;11.83;81.64;99701.00;5027533;28;20436;-82
2023/10/06 05:27:59;;;;;;;12.65;4.53;;;;;;;11.92;81.57;99698.78;5031100;28;20100;-82
2023/10/06 05:30:25;;;;;;;11.32;4.55;;;;;;;12.08;81.01;99705.25;5027052;28;20025;-82
2023/10/06 05:32:51;;;;;;;7.85;4.20;;;;;;;11.98;81.07;99674.56;5025819;28;20500;-82
2023/10/06 05:35:19;;;;;;;13.20;5.10;;;;;;;11.80;81.29;99672.03;5008612;28;20033;-82
2023/10/06 05:37:44;;;;;;;14.60;4.60;;;;;;;11.92;81.15;99680.88;5030387;28;20104;-82
2023/10/06 05:40:16;;;;;;;10.52;3.63;;;;;;;12.07;80.67;99680.38;5031778;28;20430;-82
2023/10/06 05:42:49;;;;;;;9.77;4.70;;;;;;;11.89;81.08;99697.38;5014501;28;20405;-82
2023/10/06 05:45:15;;;;;;;13.25;4.57;;;;;;;11.92;81.41;99701.47;5012415;28;20041;-83
2023/10/06 05:47:50;;;;;;;10.95;4.30;;;;;;;11.81;81.84;99696.94;5031174;28;20029;-82
2023/10/06 05:50:29;;;;;;;10.23;4.72;;;;;;;12.04;81.09;99708.41;5031418;28;20017;-82
2023/10/06 05:52:59;;;;;;;9.38;5.82;;;;;;;12.04;81.24;99715.59;5031281;28;20029;-82
2023/10/06 05:55:35;;;;;;;10.75;4.47;;;;;;;11.88;81.59;99705.66;5030720;28;20378;-81
2023/10/06 05:58:03;;;;;;;10.98;5.03;;;;;;;11.73;81.85;99703.44;5028875;28;20086;-82
2023/10/06 06:00:33;;;;;;;13.80;4.63;;;;;;;11.92;81.85;99709.47;5030298;28;20108;-82
2023/10/06 06:03:09;;;;;;;8.32;4.43;;;;;;;11.91;81.56;99710.50;5014225;28;20024;-82
2023/10/06 06:05:36;;;;;;;6.50;4.32;;;;;;;11.82;81.61;99709.25;5029911;28;20098;-82
2023/10/06 06:08:03;;;;;;;11.45;5.47;;;;;;;11.74;81.88;99690.91;5026509;28;20578;-83
2023/10/06 06:10:29;;;;;;;11.55;4.65;;;;;;;12.04;81.65;99718.28;5029986;28;20048;-82
2023/10/06 06:13:00;;;;;;;11.25;5.28;;;;;;;11.89;81.86;99726.81;5029856;28;20778;-83
2023/10/06 06:15:26;;;;;;;11.73;5.05;;;;;;;11.88;82.31;99727.84;5031546;28;20036;-82
2023/10/06 06:17:52;;;;;;;9.68;5.35;;;;;;;12.07;81.70;99731.19;5007620;28;20030;-83
2023/10/06 06:20:21;;;;;;;14.50;5.80;;;;;;;11.86;82.19;99726.47;5029652;28;20026;-82
2023/10/06 06:22:53;;;;;;;7.10;4.45;;;;;;;11.71;82.69;99708.22;5029587;28;20065;-82
2023/10/06 06:25:22;;;;;;;9.02;4.88;;;;;;;11.88;82.33;99733.19;5031345;28;20025;-83
2023/10/06 06:27:53;;;;;;;7.28;4.68;;;;;;;12.06;82.02;99739.47;5028816;28;20033;-82
2023/10/06 06:30:19;;;;;;;5.82;4.00;;;;;;;11.95;82.43;99738.41;5029582;28;20022;-82
2023/10/06 06:32:48;;;;;;;8.60;4.55;;;;;;;11.82;82.76;99731.47;5013124;28;20444;-83
2023/10/06 06:35:14;;;;;;;11.75;5.22;;;;;;;12.00;82.49;99723.31;5031100;28;20022;-83
2023/10/06 06:37:43;;;;;;;12.35;5.00;;;;;;;11.96;82.30;99721.34;5029694;28;20083;-82
2023/10/06 06:40:13;;;;;;;9.68;5.45;;;;;;;11.72;83.46;99725.09;5029264;28;20022;-82
2023/10/06 06:42:39;;;;;;;16.70;5.10;;;;;;;11.70;83.22;99722.66;5014592;28;20021;-82
2023/10/06 06:45:06;;;;;;;21.55;5.43;;;;;;;11.73;83.31;99724.06;5035171;28;20029;-83
2023/10/06 06:47:32;;;;;;;10.23;4.60;;;;;;;11.85;83.21;99724.84;5032414;28;20397;-82
2023/10/06 06:49:59;;;;;;;11.52;5.22;;;;;;;11.87;83.34;99744.97;5034676;28;20021;-82
2023/10/06 06:52:24;;;;;;;11.85;6.13;;;;;;;11.90;83.32;99732.97;5032995;28;20030;-82
2023/10/06 06:54:50;;;;;;;11.30;5.20;;;;;;;12.03;82.99;99727.38;5034796;28;20033;-82
2023/10/06 06:57:19;;;;;;;13.85;5.57;;;;;;;11.85;83.55;99709.63;5015603;28;20027;-82
2023/10/06 06:59:45;;;;;;;8.75;5.70;;;;;;;11.98;83.16;99709.34;5032659;28;20025;-82
2023/10/06 07:02:11;;;;;;;12.98;5.30;;;;;;;12.05;83.84;99722.59;5022778;28;20030;-82
2023/10/06 07:04:37;;;;;;;6.90;4.68;;;;;;;12.03;83.82;99720.13;4997391;28;20033;-82
2023/10/06 07:07:03;;;;;;;10.68;5.82;;;;;;;12.07;83.46;99717.00;5007742;28;20033;-83
2023/10/06 07:09:28;;;;;;;12.20;5.93;;;;;;;12.01;83.28;99698.16;5030089;28;20071;-83
2023/10/06 07:11:57;;;;;;;10.13;5.22;;;;;;;12.00;83.48;99701.91;5033060;28;20017;-82
2023/10/06 07:14:22;;;;;;;8.15;4.40;;;;;;;12.02;83.56;99720.38;5033160;28;20053;-82
2023/10/06 07:16:48;;;;;;;10.02;5.65;;;;;;;12.07;83.37;99707.13;5033224;28;20485;-82
2023/10/06 07:19:14;;;;;;;7.95;5.18;;;;;;;11.86;83.94;99699.72;5031038;28;20034;-81
2023/10/06 07:21:40;;;;;;;12.10;5.68;;;;;;;12.09;83.84;99720.25;5032913;28;20485;-82
2023/10/06 07:24:06;;;;;;;12.45;5.50;;;;;;;12.08;83.85;99715.97;5033959;28;20240;-82
2023/10/06 07:26:32;;;;;;;15.63;5.55;;;;;;;12.08;83.41;99698.03;5032924;28;20038;-82
2023/10/06 07:28:59;;;;;;;15.00;5.40;;;;;;;12.13;83.69;99716.88;5034160;28;20033;-81
2023/10/06 07:31:25;;;;;;;9.32;5.03;;;;;;;12.08;83.61;99707.94;5031578;28;20500;-82
2023/10/06 07:33:57;;;;;;;13.20;6.40;;;;;;;12.00;83.63;99701.06;5032352;28;20021;-82
2023/10/06 07:36:23;;;;;;;14.38;5.28;;;;;;;12.18;83.61;99708.13;5032975;28;20075;-81
2023/10/06 07:38:48;;;;;;;8.38;5.80;;;;;;;12.13;84.22;99718.72;4999808;28;20481;-81
2023/10/06 07:41:23;;;;;;;11.75;5.28;;;;;;;12.26;83.40;99705.88;5031255;28;20050;-81
2023/10/06 07:43:49;;;;;;;9.85;5.20;;;;;;;12.25;83.20;99714.16;5026573;28;20473;-81
2023/10/06 07:46:16;;;;;;;14.10;5.95;;;;;;;12.36;83.62;99716.00;5030979;28;20034;-82
2023/10/06 07:48:41;;;;;;;12.00;5.47;;;;;;;12.35;83.46;99709.00;5032432;28;20562;-81
2023/10/06 07:51:08;;;;;;;15.98;5.40;;;;;;;12.36;83.88;99708.75;5032132;28;20026;-82
2023/10/06 07:53:38;;;;;;;11.10;5.13;;;;;;;12.25;84.30;99687.41;5032244;28;20035;-81
2023/10/06 07:56:07;;;;;;;11.10;4.85;;;;;;;12.44;83.58;99707.56;5016630;28;20121;-82
2023/10/06 07:58:37;;;;;;;14.02;5.50;;;;;;;12.40;83.83;99695.72;5014780;28;20029;-82
2023/10/06 08:01:07;;;;;;;11.68;5.05;;;;;;;12.32;83.75;99682.72;5032360;28;20048;-81
2023/10/06 08:03:39;;;;;;;11.65;5.60;;;;;;;12.43;84.11;99704.06;4996225;28;20076;-81
2023/10/06 08:06:13;;;;;;;12.90;5.00;;;;;;;12.31;83.99;99668.53;5012363;28;20041;-81
2023/10/06 08:08:39;;;;;;;12.23;5.50;;;;;;;12.43;83.17;99673.81;5016135;28;20032;-81
2023/10/06 08:11:06;;;;;;;8.32;5.03;;;;;;;12.61;83.36;99698.53;5031497;28;20531;-82
2023/10/06 08:13:33;;;;;;;9.05;4.30;;;;;;;12.48;83.68;99681.94;5015684;28;20029;-81
2023/10/06 08:16:06;;;;;;;8.80;4.43;;;;;;;12.59;82.85;99686.44;5033318;28;20017;-82
2023/10/06 08:18:31;;;;;;;9.43;4.75;;;;;;;12.73;82.63;99701.16;5015998;28;20025;-81
2023/10/06 08:21:00;;;;;;;9.32;4.57;;;;;;;12.72;82.76;99694.16;5030219;28;20029;-82
2023/10/06 08:23:26;;;;;;;8.30;3.95;;;;;;;12.72;82.41;99689.63;5032805;28;20029;-82
2023/10/06 08:25:56;;;;;;;9.60;4.20;;;;;;;12.64;82.83;99676.63;5031687;28;20048;-82
2023/10/06 08:28:23;;;;;;;8.25;5.32;;;;;;;12.83;82.33;99695.97;5031796;28;20461;-82
2023/10/06 08:30:48;;;;;;;9.77;4.97;;;;;;;12.86;82.66;99706.19;4999294;28;20025;-82
2023/10/06 08:33:14;;;;;;;10.15;4.30;;;;;;;12.87;82.29;99696.28;5029169;28;20393;-82
2023/10/06 08:35:40;;;;;;;9.52;3.95;;;;;;;12.79;82.12;99684.94;4991574;28;20068;-82
2023/10/06 08:38:07;;;;;;;7.90;4.60;;;;;;;12.85;82.02;99687.66;4995844;28;20041;-82
2023/10/06 08:40:36;;;;;;;9.20;3.90;;;;;;;12.86;82.16;99686.63;5011519;28;20057;-82
2023/10/06 08:43:06;;;;;;;10.90;4.07;;;;;;;12.97;81.56;99696.47;5013855;28;20109;-82
2023/10/06 08:45:32;;;;;;;6.88;4.30;;;;;;;13.06;81.50;99689.69;5006229;28;20172;-82
2023/10/06 08:48:01;;;;;;;12.80;4.85;;;;;;;13.08;81.41;99696.44;5030864;28;20120;-82
2023/10/06 08:50:31;;;;;;;8.40;4.10;;;;;;;13.07;81.28;99689.44;5030341;28;20124;-82
2023/10/06 08:52:58;;;;;;;10.82;4.32;;;;;;;13.08;81.26;99693.75;5030207;28;20032;-82
2023/10/06 08:55:25;;;;;;;8.95;5.22;;;;;;;13.16;80.90;99684.47;5013132;28;20026;-82
2023/10/06 08:57:53;;;;;;;14.63;4.55;;;;;;;13.14;82.06;99684.72;5014809;28;20025;-82
2023/10/06 09:00:19;;;;;;;6.60;3.65;;;;;;;13.32;80.20;99692.50;5031079;28;20029;-82
2023/10/06 09:02:46;;;;;;;7.82;3.92;;;;;;;13.30;81.01;99691.94;5030821;28;20053;-82
2023/10/06 09:05:13;;;;;;;18.85;5.32;;;;;;;13.30;81.55;99691.94;5029254;28;20029;-82
2023/10/06 09:07:56;;;;;;;10.23;4.05;;;;;;;13.35;80.78;99689.31;5014370;28;20036;-82
2023/10/06 09:10:22;;;;;;;9.65;4.32;;;;;;;13.35;80.44;99685.81;5032090;28;20108;-83
2023/10/06 09:12:59;;;;;;;10.88;4.35;;;;;;;13.39;80.09;99679.72;5014290;28;20135;-82
2023/10/06 09:15:25;;;;;;;7.60;5.50;;;;;;;13.39;79.83;99676.22;5029895;28;20037;-82
2023/10/06 09:17:53;;;;;;;10.88;4.00;;;;;;;13.41;79.48;99679.50;5014177;28;20026;-82
2023/10/06 09:20:39;;;;;;;8.30;3.90;;;;;;;13.51;79.50;99675.09;5014719;28;20033;-82
2023/10/06 09:23:05;;;;;;;9.70;4.18;;;;;;;13.52;79.51;99681.25;5031700;28;20079;-82
2023/10/06 09:25:47;;;;;;;12.18;4.22;;;;;;;13.50;78.96;99670.78;5030717;28;20037;-82
2023/10/06 09:28:17;;;;;;;10.05;4.10;;;;;;;13.60;78.47;99674.66;5027694;28;20056;-82
2023/10/06 09:31:01;;;;;;;9.68;4.47;;;;;;;13.68;78.37;99668.84;5030377;28;20108;-82
2023/10/06 09:33:43;;;;;;;12.77;4.53;;;;;;;13.74;77.75;99673.25;5031766;28;20029;-82
2023/10/06 09:36:21;;;;;;;6.95;4.05;;;;;;;13.70;77.95;99653.31;5030484;28;20094;-82
2023/10/06 09:38:47;;;;;;;17.00;4.90;;;;;;;13.82;77.43;99668.25;5029791;28;20055;-82
2023/10/06 09:41:25;;;;;;;10.02;3.90;;;;;;;13.73;77.19;99637.56;5012859;28;20025;-82
2023/10/06 09:43:53;;;;;;;9.57;4.10;;;;;;;13.79;77.01;99638.41;5031905;28;20025;-82
2023/10/06 09:46:19;;;;;;;6.95;4.00;;;;;;;13.96;76.15;99655.25;5030548;28;20061;-82
2023/10/06 09:48:50;;;;;;;6.00;3.42;;;;;;;13.90;76.31;99640.97;5028734;28;20361;-82
2023/10/06 09:51:17;;;;;;;6.80;3.35;;;;;;;14.01;75.84;99645.41;5030079;28;20024;-82
2023/10/06 09:53:47;;;;;;;10.38;4.10;;;;;;;13.99;75.86;99647.53;5030087;28;20032;-82
2023/10/06 09:56:13;;;;;;;9.45;4.00;;;;;;;14.02;75.84;99649.69;5014258;28;20480;-82
2023/10/06 09:58:47;;;;;;;7.15;4.28;;;;;;;14.00;75.78;99640.31;5028458;28;20048;-83
2023/10/06 10:01:14;;;;;;;13.25;3.80;;;;;;;13.96;75.96;99633.78;5003313;28;20025;-82
2023/10/06 10:03:41;;;;;;;13.07;4.00;;;;;;;14.08;74.98;99637.16;5029967;28;20057;-82
2023/10/06 10:06:07;;;;;;;9.80;3.88;;;;;;;14.08;74.57;99629.09;5031358;28;20030;-82
2023/10/06 10:08:34;;;;;;;7.88;3.83;;;;;;;14.28;74.71;99637.38;5030162;28;20507;-82
2023/10/06 10:11:07;;;;;;;10.95;3.70;;;;;;;14.34;73.80;99633.72;5026508;28;20021;-82
2023/10/06 10:13:39;;;;;;;5.22;3.45;;;;;;;14.25;74.40;99638.69;5029793;28;20026;-83
2023/10/06 10:16:26;;;;;;;11.85;4.30;;;;;;;14.17;73.41;99606.94;5030336;28;20124;-82
2023/10/06 10:19:03;;;;;;;10.43;3.70;;;;;;;14.22;73.91;99622.25;5035560;28;20024;-82
2023/10/06 10:21:32;;;;;;;16.65;4.00;;;;;;;14.12;73.60;99631.03;5032766;28;20148;-82
2023/10/06 10:24:03;;;;;;;8.27;3.72;;;;;;;14.14;73.25;99622.72;5035196;28;20022;-83
2023/10/06 10:26:31;;;;;;;8.65;3.60;;;;;;;14.30;73.08;99619.19;5034131;28;20086;-82
2023/10/06 10:29:12;;;;;;;8.10;3.92;;;;;;;14.41;72.90;99618.22;5033947;28;20079;-82
2023/10/06 10:31:47;;;;;;;11.75;4.47;;;;;;;14.26;73.17;99581.22;5031464;28;20025;-82
2023/10/06 10:34:22;;;;;;;7.30;3.55;;;;;;;14.38;73.42;99580.28;5033811;28;20033;-82
2023/10/06 10:36:54;;;;;;;9.30;4.05;;;;;;;14.51;72.28;99596.81;5033217;28;20485;-82
2023/10/06 10:39:22;;;;;;;9.50;3.85;;;;;;;14.62;72.61;99603.88;5034890;28;20028;-82
2023/10/06 10:41:47;;;;;;;10.70;3.58;;;;;;;14.63;72.22;99581.34;5034677;28;20031;-82
2023/10/06 10:44:14;;;;;;;10.63;3.95;;;;;;;14.75;71.68;99586.50;5033478;28;20448;-82
2023/10/06 10:46:50;;;;;;;9.05;4.50;;;;;;;15.03;71.84;99599.63;5013328;28;20029;-82
2023/10/06 10:49:22;;;;;;;;;;;;;;;15.08;71.40;99588.09;5031395;28;20025;-82
2023/10/06 10:51:51;;;;;;;8.95;3.55;;;;;;;15.20;71.80;99573.38;5026846;28;19913;-83
2023/10/06 10:54:26;;;;;;;7.63;3.78;;;;;;;15.22;70.91;99557.00;5034720;28;20029;-82
2023/10/06 10:56:53;;;;;;;4.18;3.42;;;;;;;15.35;70.88;99562.72;5016472;28;20057;-83
2023/10/06 10:59:22;;;;;;;8.93;3.15;;;;;;;15.40;70.21;99567.28;5032156;28;20063;-82
2023/10/06 11:01:51;;;;;;;4.95;3.25;;;;;;;15.56;69.93;99553.69;5034593;28;20033;-83
2023/10/06 11:04:31;;;;;;;12.43;4.35;;;;;;;15.64;69.67;99563.13;5034687;28;20034;-83
2023/10/06 11:07:12;;;;;;;4.80;2.80;;;;;;;15.50;69.70;99545.84;5033204;28;20432;-82
2023/10/06 11:09:52;;;;;;;5.85;3.38;;;;;;;15.51;69.86;99563.59;5031160;28;20032;-82
2023/10/06 11:12:17;;;;;;;8.77;3.33;;;;;;;15.49;69.29;99563.06;5033093;28;20079;-82
2023/10/06 11:14:43;;;;;;;7.55;3.47;;;;;;;15.37;69.47;99568.66;5034613;28;20025;-82
2023/10/06 11:17:11;;;;;;;7.60;3.53;;;;;;;15.33;68.92;99543.31;5033149;28;20552;-82
2023/10/06 11:19:38;;;;;;;8.02;3.72;;;;;;;15.38;69.63;99555.97;5030659;28;20405;-82
2023/10/06 11:22:19;;;;;;;7.28;4.03;;;;;;;15.42;69.28;99554.41;5032762;28;20104;-82
2023/10/06 11:24:49;;;;;;;7.20;3.30;;;;;;;15.48;69.03;99556.91;5027783;28;20099;-82
2023/10/06 11:27:22;;;;;;;9.35;3.42;;;;;;;15.47;68.80;99539.13;5017153;28;20039;-82
2023/10/06 11:29:50;;;;;;;10.15;3.65;;;;;;;15.33;68.69;99546.00;5032682;28;20021;-83
2023/10/06 11:32:17;;;;;;;7.93;3.40;;;;;;;15.29;68.70;99550.28;5032255;28;20026;-82
2023/10/06 11:34:44;;;;;;;6.38;3.53;;;;;;;15.25;68.40;99524.19;5016530;28;20022;-83
2023/10/06 11:37:10;;;;;;;10.50;3.95;;;;;;;15.27;69.06;99535.47;5032625;28;20030;-82
2023/10/06 11:39:36;;;;;;;7.38;4.00;;;;;;;15.17;68.82;99519.31;5016552;28;20040;-82